Oregon State Flying Club

The Oregon State Flying Club is a non-profit organization committed to providing safe and inexpensive flying to the Oregon State University and Linn-Benton Community College communities. The Club currently owns three aircraft based at the Corvallis Airport for training, travel, and recreational purposes. Founded in 1952 and incorporated in 1956 the OSFC is one of the oldest continuously active flying clubs in the United States.

a Rafflecopter giveaway

News & Announcements

Flying Club Open House

Corvallis Airport, Sunday, November 9
10:00am to 3:00pm

Plane Wash

Saturday, November 1, 10:00am

Monthly Board Meeting

Next Meeting: Tuesday, October 14, 6pm @ Memorial Union Board Room

Current METAR KCVO

Raw METAR:  KCVO 210155Z AUTO 19005KT 10SM FEW035 SCT080 14/11 A2984 RMK AO1

This is a report for Corvallis Municipal Automatic Weather Observing / Reporting System, United States. The report was made 16 minutes ago, at 01:55 UTC. The wind was blowing at a speed of 5.8 miles per hour (2.6 meters per second) from south (190°). The temperature was 57 °F (14 °C), with a dew-point at 52 °F (11 °C). The atmospheric pressure was 29.84 inHg (1011 hPa). The relative humidity was 82.1%. There were a few clouds at a height of 3500 feet (1067 meters) and scattered clouds at a height of 8000 feet (2438 meters). The overall visibility was 10.0 miles (16.1 kilometers).